Fall Branch, Tennessee
Current Conditions -  °F | °C
As of 1:53 AM on Tuesday 21 Oct 2014 (Local Time) from KTRI Reporting Station
Clear Clear  
Wind Chill: 49°   Ceiling: Unl
Heat Index: 49°   Visibility: 10mi
Dew Point: 47°   Wind: 0mph
Humidity: 93%   Direction: NA
Pressure: 30"   Gusts: NA
Location:  36.42°N, 82.62°W
Report Text: KTRI 210553Z 00000KT 10SM CLR 09/08 A3000 RMK AO2 SLP142 T00940083 10139 20094 55004
Loading
Personal Weather Stations






























Interactive Weather Map
Tropical Storm Tracking
New forecast layout! Learn more

10-Day Weather Forecast

Advertisements
Track Severe Weather on mobile